Time;durP1;ratioP1;P1;durP2;ratioP2;P2;SDS_P1;SDS_P2;PMS_P1;PMS_P2;Temp;Humidity;BMP_temperature;BMP_pressure;BME280_temperature;BME280_humidity;BME280_pressure;Samples;Min_cycle;Max_cycle;Signal;HPM_P1;HPM_P2
2022/03/26 00:01:04;;;;;;;35.37;22.53;;;9.60;59.30;;;;;;5060918;28;20190;-71
2022/03/26 00:03:32;;;;;;;40.37;24.73;;;9.50;60.80;;;;;;5069962;28;20286;-71
2022/03/26 00:05:59;;;;;;;36.80;24.50;;;9.50;62.00;;;;;;5059454;28;20622;-71
2022/03/26 00:08:26;;;;;;;44.40;22.87;;;9.40;62.50;;;;;;5064315;28;20245;-71
2022/03/26 00:10:53;;;;;;;42.77;22.87;;;9.40;61.70;;;;;;5058883;28;20290;-71
2022/03/26 00:13:20;;;;;;;34.43;22.63;;;9.40;61.30;;;;;;5063049;28;20294;-71
2022/03/26 00:15:48;;;;;;;43.50;24.33;;;9.40;61.00;;;;;;5074404;28;20202;-71
2022/03/26 00:18:17;;;;;;;46.90;23.97;;;9.40;60.60;;;;;;5060500;28;20195;-71
2022/03/26 00:20:45;;;;;;;42.13;23.23;;;9.40;60.20;;;;;;5076602;28;20506;-71
2022/03/26 00:23:13;;;;;;;36.57;22.57;;;9.40;60.00;;;;;;5065819;28;20213;-71
2022/03/26 00:25:40;;;;;;;40.53;22.53;;;9.40;59.80;;;;;;5076797;28;20204;-72
2022/03/26 00:28:07;;;;;;;36.93;22.97;;;9.40;59.90;;;;;;5076823;28;20207;-70
2022/03/26 00:30:34;;;;;;;33.50;21.57;;;9.30;59.90;;;;;;5066161;28;20692;-70
2022/03/26 00:33:02;;;;;;;33.40;20.77;;;9.30;60.30;;;;;;5068858;28;20209;-70
2022/03/26 00:35:29;;;;;;;36.33;21.10;;;9.20;60.90;;;;;;5063280;28;20635;-70
2022/03/26 00:37:56;;;;;;;38.77;22.53;;;9.20;62.00;;;;;;5065286;28;20281;-70
2022/03/26 00:40:23;;;;;;;40.80;25.27;;;9.10;62.70;;;;;;5074393;28;20238;-70
2022/03/26 00:42:50;;;;;;;37.03;23.20;;;9.10;62.80;;;;;;5061943;28;20202;-70
2022/03/26 00:45:17;;;;;;;37.93;22.63;;;9.00;62.50;;;;;;5060980;28;20206;-70
2022/03/26 00:47:45;;;;;;;36.00;21.57;;;8.90;61.10;;;;;;5058257;28;20210;-70
2022/03/26 00:50:12;;;;;;;42.07;21.47;;;8.90;60.70;;;;;;5072595;28;20215;-70
2022/03/26 00:52:39;;;;;;;34.53;21.97;;;8.80;61.10;;;;;;5038606;28;20550;-70
2022/03/26 00:55:07;;;;;;;42.53;23.57;;;8.70;61.80;;;;;;5067873;28;20208;-71
2022/03/26 00:57:34;;;;;;;35.03;22.47;;;8.70;62.70;;;;;;5059953;28;20285;-71
2022/03/26 01:00:01;;;;;;;37.33;22.77;;;8.60;63.30;;;;;;5064761;28;20218;-72
2022/03/26 01:02:28;;;;;;;43.50;24.03;;;8.60;63.60;;;;;;5065494;28;20189;-72
2022/03/26 01:04:55;;;;;;;38.50;22.83;;;8.70;63.60;;;;;;5055050;28;20203;-72
2022/03/26 01:07:22;;;;;;;49.07;26.93;;;8.70;63.60;;;;;;5065210;28;20205;-71
2022/03/26 01:09:49;;;;;;;45.03;23.97;;;8.70;63.20;;;;;;5059475;28;20249;-71
2022/03/26 01:12:17;;;;;;;44.07;25.87;;;8.70;62.60;;;;;;5061504;28;20206;-71
2022/03/26 01:14:44;;;;;;;50.20;26.97;;;8.70;62.10;;;;;;5074647;28;20205;-71
2022/03/26 01:17:11;;;;;;;42.17;26.67;;;8.70;61.70;;;;;;5056968;28;20581;-70
2022/03/26 01:19:38;;;;;;;47.90;26.77;;;8.70;61.40;;;;;;5063854;28;20230;-70
2022/03/26 01:22:06;;;;;;;45.17;26.83;;;8.80;61.30;;;;;;5065995;28;20593;-71
2022/03/26 01:24:33;;;;;;;38.07;24.17;;;8.80;61.20;;;;;;5057708;28;20214;-72
2022/03/26 01:27:00;;;;;;;39.47;23.20;;;8.80;61.20;;;;;;5068954;28;20209;-72
2022/03/26 01:29:27;;;;;;;34.63;23.43;;;8.80;61.50;;;;;;5068014;28;20228;-72
2022/03/26 01:31:54;;;;;;;40.30;24.93;;;8.90;61.70;;;;;;5065801;28;20627;-71
2022/03/26 01:34:24;;;;;;;37.77;24.20;;;8.80;61.50;;;;;;5070450;28;20217;-71
2022/03/26 01:36:51;;;;;;;42.47;26.43;;;8.80;61.80;;;;;;5066589;28;20537;-73
2022/03/26 01:39:20;;;;;;;48.97;27.10;;;8.80;61.50;;;;;;5069627;28;20251;-73
2022/03/26 01:41:47;;;;;;;47.33;26.07;;;8.80;61.00;;;;;;5078451;28;20209;-72
2022/03/26 01:44:15;;;;;;;44.67;26.57;;;8.80;60.80;;;;;;5062638;28;20198;-72
2022/03/26 01:46:51;;;;;;;44.73;24.60;;;8.80;60.90;;;;;;5057672;28;20198;-72
2022/03/26 01:49:20;;;;;;;41.37;23.87;;;8.80;61.30;;;;;;5062627;28;20213;-72
2022/03/26 01:51:47;;;;;;;46.17;26.83;;;8.70;61.40;;;;;;5053905;28;20210;-70
2022/03/26 01:54:16;;;;;;;47.73;26.93;;;8.70;61.30;;;;;;5062401;28;20577;-71
2022/03/26 01:56:43;;;;;;;44.00;26.60;;;8.70;61.00;;;;;;5070957;28;20503;-71
2022/03/26 01:59:11;;;;;;;47.37;26.93;;;8.70;60.90;;;;;;5065075;28;20536;-71
2022/03/26 02:01:39;;;;;;;43.17;26.17;;;8.60;60.80;;;;;;5059860;28;20210;-71
2022/03/26 02:04:08;;;;;;;55.40;26.80;;;8.60;60.80;;;;;;5072951;28;20194;-71
2022/03/26 02:06:38;;;;;;;49.50;29.33;;;8.50;61.50;;;;;;5067371;28;20202;-71
2022/03/26 02:09:08;;;;;;;56.43;26.27;;;8.50;61.10;;;;;;5054519;28;20242;-71
2022/03/26 02:11:39;;;;;;;52.90;25.10;;;8.40;61.60;;;;;;5060280;28;20541;-71
2022/03/26 02:14:09;;;;;;;58.17;26.40;;;8.40;61.90;;;;;;5057616;28;20662;-71
2022/03/26 02:16:39;;;;;;;45.13;24.57;;;8.30;61.80;;;;;;5072260;28;20213;-71
2022/03/26 02:19:08;;;;;;;38.87;23.53;;;8.20;61.80;;;;;;5064649;28;20317;-71
2022/03/26 02:21:37;;;;;;;51.73;26.10;;;8.20;61.80;;;;;;5069428;28;20206;-71
2022/03/26 02:24:06;;;;;;;49.17;25.77;;;8.10;62.10;;;;;;5063348;28;20191;-71
2022/03/26 02:26:33;;;;;;;45.17;26.47;;;8.10;63.10;;;;;;5060300;28;20198;-71
2022/03/26 02:29:07;;;;;;;48.53;26.57;;;8.00;62.30;;;;;;5069700;28;20509;-71
2022/03/26 02:31:36;;;;;;;43.47;27.50;;;8.00;62.70;;;;;;5061481;28;20189;-71
2022/03/26 02:34:05;;;;;;;43.67;26.13;;;8.00;62.80;;;;;;5066518;28;20218;-71
2022/03/26 02:36:33;;;;;;;46.07;27.43;;;7.90;62.70;;;;;;5060635;28;20723;-71
2022/03/26 02:39:01;;;;;;;39.80;25.13;;;7.90;62.60;;;;;;5055890;28;20562;-71
2022/03/26 02:41:28;;;;;;;40.50;26.17;;;7.90;62.70;;;;;;5062869;28;20653;-71
2022/03/26 02:43:55;;;;;;;46.73;27.13;;;7.90;63.10;;;;;;5068123;28;20635;-71
2022/03/26 02:46:22;;;;;;;40.67;25.77;;;7.80;63.10;;;;;;5053237;28;20212;-71
2022/03/26 02:48:50;;;;;;;46.33;25.67;;;7.80;62.90;;;;;;5063132;28;20209;-71
2022/03/26 02:51:17;;;;;;;43.27;25.50;;;7.70;62.50;;;;;;5035869;28;20211;-71
2022/03/26 02:53:44;;;;;;;44.07;25.07;;;7.70;63.20;;;;;;5059752;28;20213;-71
2022/03/26 02:56:11;;;;;;;37.93;24.73;;;7.70;63.20;;;;;;5034636;28;20221;-71
2022/03/26 02:58:38;;;;;;;34.20;23.77;;;7.70;63.00;;;;;;5068750;28;20210;-71
2022/03/26 03:01:05;;;;;;;48.63;24.83;;;7.70;63.20;;;;;;5073897;28;20226;-71
2022/03/26 03:03:32;;;;;;;42.07;25.50;;;7.70;63.30;;;;;;5071600;28;20198;-71
2022/03/26 03:05:59;;;;;;;37.93;24.50;;;7.70;63.50;;;;;;5068181;28;20209;-71
2022/03/26 03:08:26;;;;;;;44.33;26.50;;;7.70;63.70;;;;;;5058934;28;20245;-71
2022/03/26 03:10:53;;;;;;;45.70;26.50;;;7.70;64.00;;;;;;5063942;28;20218;-71
2022/03/26 03:13:22;;;;;;;40.53;25.73;;;7.60;64.50;;;;;;5068380;28;20348;-71
2022/03/26 03:15:52;;;;;;;43.87;25.73;;;7.60;63.40;;;;;;5059573;28;20221;-71
2022/03/26 03:18:19;;;;;;;49.77;27.67;;;7.60;62.90;;;;;;5068526;28;20592;-70
2022/03/26 03:20:46;;;;;;;49.10;26.87;;;7.50;62.80;;;;;;5068157;28;20219;-70
2022/03/26 03:23:14;;;;;;;45.00;25.63;;;7.50;63.40;;;;;;5062432;28;20262;-70
2022/03/26 03:25:41;;;;;;;45.13;25.87;;;7.50;63.50;;;;;;5073367;28;20233;-70
2022/03/26 03:28:08;;;;;;;38.17;24.80;;;7.50;63.70;;;;;;5061374;28;20205;-71
2022/03/26 03:30:35;;;;;;;37.40;24.23;;;7.50;63.80;;;;;;5063335;28;20202;-71
2022/03/26 03:33:03;;;;;;;39.87;24.27;;;7.50;63.80;;;;;;5053327;28;20206;-71
2022/03/26 03:35:30;;;;;;;39.87;26.17;;;7.50;63.60;;;;;;5068905;28;20308;-71
2022/03/26 03:37:57;;;;;;;38.10;23.70;;;7.50;63.30;;;;;;5063524;28;20215;-71
2022/03/26 03:40:24;;;;;;;37.23;24.77;;;7.50;63.10;;;;;;5069739;28;20232;-71
2022/03/26 03:42:53;;;;;;;36.37;24.07;;;7.50;63.30;;;;;;5073471;28;20212;-70
2022/03/26 03:45:20;;;;;;;36.40;23.23;;;7.50;63.60;;;;;;5075553;28;20213;-70
2022/03/26 03:47:47;;;;;;;39.07;23.70;;;7.50;63.80;;;;;;5065284;28;20712;-70
2022/03/26 03:50:15;;;;;;;37.17;23.50;;;7.50;64.60;;;;;;5072213;28;20206;-70
2022/03/26 03:52:42;;;;;;;36.13;21.87;;;7.50;64.10;;;;;;5063496;28;20239;-70
2022/03/26 03:55:10;;;;;;;39.97;23.30;;;7.40;64.30;;;;;;5069205;28;20224;-70
2022/03/26 03:57:44;;;;;;;39.33;23.27;;;7.30;64.40;;;;;;5060059;28;20284;-70
2022/03/26 04:00:13;;;;;;;46.57;25.53;;;7.30;64.30;;;;;;5064075;28;20216;-70
2022/03/26 04:02:41;;;;;;;43.77;24.10;;;7.30;64.10;;;;;;5072002;28;20708;-70
2022/03/26 04:05:10;;;;;;;39.67;23.40;;;7.30;64.00;;;;;;5073634;28;20308;-70
2022/03/26 04:07:42;;;;;;;36.93;23.00;;;7.30;64.20;;;;;;5059931;28;20300;-70
2022/03/26 04:10:11;;;;;;;38.30;24.13;;;7.30;63.80;;;;;;5072148;28;20240;-70
2022/03/26 04:12:40;;;;;;;38.73;23.33;;;7.30;63.70;;;;;;5061940;28;20729;-70
2022/03/26 04:15:09;;;;;;;36.37;23.57;;;7.30;63.40;;;;;;5059258;28;20547;-70
2022/03/26 04:17:36;;;;;;;43.87;24.83;;;7.30;63.00;;;;;;5067346;28;20204;-70
2022/03/26 04:20:08;;;;;;;43.30;25.60;;;7.30;63.00;;;;;;5063197;28;20272;-70
2022/03/26 04:22:36;;;;;;;39.23;24.90;;;7.20;63.40;;;;;;5072586;28;20654;-70
2022/03/26 04:25:04;;;;;;;41.83;25.73;;;7.20;63.80;;;;;;5059630;28;20213;-70
2022/03/26 04:27:32;;;;;;;37.57;22.87;;;7.10;64.30;;;;;;5067016;28;20206;-70
2022/03/26 04:29:59;;;;;;;43.67;26.13;;;7.10;64.80;;;;;;5068471;28;20247;-70
2022/03/26 04:32:26;;;;;;;38.50;22.63;;;7.00;65.30;;;;;;5049015;28;20572;-70
2022/03/26 04:34:54;;;;;;;37.93;22.73;;;7.00;65.10;;;;;;5066629;28;20217;-70
2022/03/26 04:37:21;;;;;;;38.13;22.73;;;7.00;64.60;;;;;;5059264;28;20629;-70
2022/03/26 04:39:48;;;;;;;41.60;24.43;;;6.90;64.40;;;;;;5062432;28;20320;-70
2022/03/26 04:42:15;;;;;;;37.80;22.57;;;6.90;64.70;;;;;;5069120;28;20217;-70
2022/03/26 04:44:42;;;;;;;40.20;23.77;;;6.90;64.90;;;;;;5073013;28;20205;-70
2022/03/26 04:47:09;;;;;;;37.80;22.57;;;6.80;64.90;;;;;;5067930;28;20201;-71
2022/03/26 04:49:37;;;;;;;36.63;21.60;;;6.80;64.70;;;;;;5072862;28;20209;-71
2022/03/26 04:52:04;;;;;;;35.43;21.60;;;6.90;64.50;;;;;;5067964;28;20216;-71
2022/03/26 04:54:31;;;;;;;38.60;21.90;;;6.90;64.30;;;;;;5070421;28;20205;-70
2022/03/26 04:56:59;;;;;;;48.43;22.07;;;6.90;64.10;;;;;;5063197;28;20220;-70
2022/03/26 04:59:26;;;;;;;30.60;19.77;;;6.90;63.70;;;;;;5062455;28;20236;-70
2022/03/26 05:01:53;;;;;;;31.73;21.37;;;7.00;63.70;;;;;;5059672;28;20255;-70
2022/03/26 05:04:20;;;;;;;33.43;20.70;;;7.00;63.70;;;;;;5067716;28;20639;-70
2022/03/26 05:06:47;;;;;;;31.13;20.67;;;7.00;63.60;;;;;;5065678;28;20270;-70
2022/03/26 05:09:14;;;;;;;26.60;17.80;;;7.00;63.30;;;;;;5061249;28;20225;-70
2022/03/26 05:11:42;;;;;;;30.17;20.20;;;7.00;63.10;;;;;;5057093;28;20650;-70
2022/03/26 05:14:09;;;;;;;29.70;18.20;;;7.10;62.80;;;;;;5054631;28;20206;-70
2022/03/26 05:16:37;;;;;;;29.03;18.97;;;7.10;62.50;;;;;;5064428;28;20217;-71
2022/03/26 05:19:04;;;;;;;30.73;19.63;;;7.10;63.00;;;;;;5072532;28;20268;-71
2022/03/26 05:21:31;;;;;;;37.60;18.83;;;7.20;61.90;;;;;;5069044;28;20237;-72
2022/03/26 05:23:58;;;;;;;29.20;18.73;;;7.10;61.70;;;;;;5071560;28;20305;-71
2022/03/26 05:26:25;;;;;;;32.17;18.93;;;7.20;61.70;;;;;;5072293;28;20198;-71
2022/03/26 05:28:52;;;;;;;36.83;20.00;;;7.20;61.70;;;;;;5063526;28;20633;-71
2022/03/26 05:31:19;;;;;;;29.50;19.50;;;7.30;61.60;;;;;;5056173;28;20694;-71
2022/03/26 05:33:46;;;;;;;30.97;19.43;;;7.40;61.60;;;;;;5066354;28;20204;-71
2022/03/26 05:36:13;;;;;;;30.43;19.70;;;7.40;61.50;;;;;;5067067;28;20704;-71
2022/03/26 05:38:41;;;;;;;32.07;20.27;;;7.50;61.80;;;;;;5060951;28;20213;-71
2022/03/26 05:41:08;;;;;;;33.67;20.27;;;7.60;61.90;;;;;;5066848;28;20248;-71
2022/03/26 05:43:35;;;;;;;35.17;20.30;;;7.70;62.00;;;;;;5068164;28;20216;-71
2022/03/26 05:46:02;;;;;;;32.23;20.37;;;7.80;61.90;;;;;;5065142;28;20202;-71
2022/03/26 05:48:29;;;;;;;31.00;19.77;;;7.80;61.30;;;;;;5070497;28;20198;-71
2022/03/26 05:50:56;;;;;;;29.17;20.13;;;8.00;60.60;;;;;;5067460;28;20230;-71
2022/03/26 05:53:23;;;;;;;30.83;20.20;;;8.10;59.90;;;;;;5069139;28;20208;-71
2022/03/26 05:55:50;;;;;;;39.07;21.00;;;8.20;60.00;;;;;;5072192;28;20225;-71
2022/03/26 05:58:17;;;;;;;40.33;19.83;;;8.30;60.10;;;;;;5061481;28;20215;-71
2022/03/26 06:00:48;;;;;;;31.73;20.67;;;8.40;60.20;;;;;;5057093;28;20305;-71
2022/03/26 06:03:19;;;;;;;34.00;20.37;;;8.50;60.40;;;;;;5060924;28;20220;-71
2022/03/26 06:05:47;;;;;;;32.33;21.70;;;8.60;60.40;;;;;;5064755;28;20199;-71
2022/03/26 06:08:14;;;;;;;37.53;21.80;;;8.80;59.90;;;;;;5058520;28;20206;-71
2022/03/26 06:10:41;;;;;;;31.37;20.20;;;8.90;59.70;;;;;;5065110;28;20218;-71
2022/03/26 06:13:08;;;;;;;36.07;21.57;;;9.10;59.50;;;;;;5071879;28;20265;-71
2022/03/26 06:15:36;;;;;;;37.07;21.43;;;9.40;59.00;;;;;;5062598;28;20213;-71
2022/03/26 06:18:11;;;;;;;30.17;21.57;;;9.70;58.60;;;;;;5072646;28;20524;-71
2022/03/26 06:20:38;;;;;;;36.90;22.97;;;10.00;58.10;;;;;;5068162;28;20738;-71
2022/03/26 06:23:05;;;;;;;37.07;22.10;;;10.30;57.40;;;;;;5069811;28;20657;-71
2022/03/26 06:25:32;;;;;;;33.40;21.47;;;10.50;56.50;;;;;;5058090;28;20220;-71
2022/03/26 06:28:00;;;;;;;35.17;22.73;;;10.60;55.80;;;;;;5060699;28;20530;-71
2022/03/26 06:30:27;;;;;;;36.00;22.73;;;10.70;55.20;;;;;;5056924;28;20362;-71
2022/03/26 06:32:54;;;;;;;37.20;21.93;;;10.90;54.80;;;;;;5061857;28;20194;-71
2022/03/26 06:35:21;;;;;;;35.10;21.33;;;11.00;54.40;;;;;;5066503;28;20213;-71
2022/03/26 06:37:48;;;;;;;32.60;21.43;;;11.00;54.20;;;;;;5063065;28;20635;-71
2022/03/26 06:40:15;;;;;;;32.17;20.87;;;11.10;54.30;;;;;;5064839;28;20721;-71
2022/03/26 06:42:42;;;;;;;35.43;21.93;;;11.20;54.30;;;;;;5059610;28;20214;-71
2022/03/26 06:45:14;;;;;;;28.43;21.40;;;11.30;54.10;;;;;;5062422;28;20216;-71
2022/03/26 06:47:42;;;;;;;33.40;20.33;;;11.40;53.50;;;;;;5061087;28;20192;-71
2022/03/26 06:50:09;;;;;;;38.13;20.97;;;11.40;53.40;;;;;;5073819;28;20195;-71
2022/03/26 06:52:36;;;;;;;33.53;21.73;;;11.50;53.50;;;;;;5070861;28;20203;-71
2022/03/26 06:55:06;;;;;;;28.07;19.07;;;11.50;53.00;;;;;;5075174;28;20625;-71
2022/03/26 06:57:34;;;;;;;33.23;19.63;;;11.50;51.90;;;;;;5066972;28;20218;-71
2022/03/26 07:00:01;;;;;;;27.63;19.43;;;11.40;51.20;;;;;;5073735;28;20617;-71
2022/03/26 07:02:28;;;;;;;32.87;19.03;;;11.40;51.30;;;;;;5068310;28;20209;-71
2022/03/26 07:04:55;;;;;;;31.93;18.40;;;11.40;52.10;;;;;;5065152;28;20214;-70
2022/03/26 07:07:22;;;;;;;34.70;19.70;;;11.50;52.40;;;;;;5061270;28;20200;-71
2022/03/26 07:09:49;;;;;;;31.60;20.57;;;11.60;52.90;;;;;;5069623;28;20245;-71
2022/03/26 07:12:18;;;;;;;41.53;21.30;;;11.70;52.60;;;;;;5065795;28;20218;-71
2022/03/26 07:14:45;;;;;;;34.40;20.30;;;11.90;52.40;;;;;;5067840;28;20212;-71
2022/03/26 07:17:12;;;;;;;37.30;23.70;;;12.00;52.10;;;;;;5066740;28;20215;-71
2022/03/26 07:19:39;;;;;;;27.33;20.13;;;12.10;52.00;;;;;;5068893;28;20230;-71
2022/03/26 07:22:06;;;;;;;31.20;21.33;;;12.20;52.00;;;;;;5053323;28;20282;-71
2022/03/26 07:24:33;;;;;;;30.77;21.43;;;12.40;51.50;;;;;;5075202;28;20707;-71
2022/03/26 07:27:00;;;;;;;34.57;22.30;;;12.40;50.90;;;;;;5065226;28;20240;-71
2022/03/26 07:29:27;;;;;;;43.80;23.53;;;12.60;51.20;;;;;;5073309;28;20201;-71
2022/03/26 07:31:55;;;;;;;42.53;22.13;;;12.70;51.20;;;;;;5062316;28;20209;-71
2022/03/26 07:34:22;;;;;;;32.73;22.60;;;12.80;51.20;;;;;;5055389;28;20222;-71
2022/03/26 07:36:49;;;;;;;30.77;21.77;;;12.90;50.90;;;;;;5073073;28;20293;-71
2022/03/26 07:39:16;;;;;;;35.80;26.97;;;13.10;50.80;;;;;;5067587;28;20654;-70
2022/03/26 07:41:44;;;;;;;1289.63;743.67;;;13.20;50.80;;;;;;5057038;28;20240;-70
2022/03/26 07:44:11;;;;;;;86.73;66.33;;;13.40;50.60;;;;;;5064075;28;20283;-70
2022/03/26 07:46:38;;;;;;;624.33;389.63;;;13.50;49.80;;;;;;5071604;28;20537;-70
2022/03/26 07:49:05;;;;;;;643.33;374.73;;;13.70;49.80;;;;;;5061330;28;20201;-70
2022/03/26 07:51:32;;;;;;;40.33;24.90;;;13.80;49.00;;;;;;5069794;28;20217;-70
2022/03/26 07:53:59;;;;;;;69.07;43.23;;;13.90;49.20;;;;;;5074735;28;20213;-70
2022/03/26 07:56:26;;;;;;;36.07;24.77;;;14.10;49.40;;;;;;5067815;28;20244;-70
2022/03/26 07:58:54;;;;;;;52.50;29.40;;;14.20;49.30;;;;;;5053785;28;20200;-71
2022/03/26 08:01:21;;;;;;;36.13;24.53;;;14.40;49.40;;;;;;5062610;28;20299;-71
2022/03/26 08:03:53;;;;;;;30.97;23.00;;;14.60;49.30;;;;;;5063589;28;20532;-71
2022/03/26 08:06:24;;;;;;;415.87;202.00;;;14.80;49.10;;;;;;5058656;28;20222;-71
2022/03/26 08:08:51;;;;;;;37.83;26.73;;;15.00;48.50;;;;;;5074440;28;20254;-71
2022/03/26 08:11:18;;;;;;;36.20;25.37;;;15.20;48.20;;;;;;5074623;28;20521;-71
2022/03/26 08:13:45;;;;;;;38.17;25.40;;;15.30;48.20;;;;;;5063629;28;20229;-71
2022/03/26 08:16:12;;;;;;;39.97;26.27;;;15.60;47.80;;;;;;5072431;28;20256;-71
2022/03/26 08:18:40;;;;;;;41.07;26.70;;;15.70;47.80;;;;;;5070596;28;20209;-71
2022/03/26 08:21:09;;;;;;;40.10;27.73;;;15.80;47.40;;;;;;5069206;28;20225;-71
2022/03/26 08:23:37;;;;;;;36.53;27.60;;;16.00;46.80;;;;;;5058394;28;20202;-71
2022/03/26 08:26:20;;;;;;;41.73;26.47;;;16.20;46.30;;;;;;5056554;28;20653;-71
2022/03/26 08:28:51;;;;;;;41.07;27.10;;;16.30;46.20;;;;;;5072652;28;20645;-71
2022/03/26 08:31:26;;;;;;;35.93;26.43;;;16.40;45.70;;;;;;5078114;28;20531;-71
2022/03/26 08:33:53;;;;;;;39.53;26.50;;;16.60;45.90;;;;;;5061978;28;20198;-71
2022/03/26 08:36:21;;;;;;;39.13;27.13;;;16.70;45.00;;;;;;5064429;28;20202;-70
2022/03/26 08:38:48;;;;;;;36.93;27.17;;;16.70;45.00;;;;;;5063898;28;20657;-70
2022/03/26 08:41:19;;;;;;;42.93;29.27;;;16.90;44.60;;;;;;5057963;28;20229;-70
2022/03/26 08:43:48;;;;;;;39.70;28.93;;;17.00;44.20;;;;;;5064447;28;20206;-70
2022/03/26 08:46:16;;;;;;;47.13;28.63;;;17.10;44.00;;;;;;5072182;28;20550;-70
2022/03/26 08:48:43;;;;;;;40.13;28.80;;;17.10;44.20;;;;;;5064319;28;20201;-71
2022/03/26 08:51:10;;;;;;;45.63;30.70;;;17.30;44.20;;;;;;5068729;28;20647;-71
2022/03/26 08:53:37;;;;;;;43.50;30.40;;;17.50;44.00;;;;;;5069013;28;20202;-71
2022/03/26 08:56:06;;;;;;;41.93;29.73;;;17.60;43.20;;;;;;5071884;28;20286;-71
2022/03/26 08:58:33;;;;;;;39.17;28.03;;;17.70;43.20;;;;;;5072804;28;20201;-71
2022/03/26 09:01:01;;;;;;;45.70;31.60;;;17.80;43.00;;;;;;5062649;28;20567;-71
2022/03/26 09:03:29;;;;;;;45.93;29.67;;;17.90;43.20;;;;;;5057596;28;20202;-71
2022/03/26 09:05:57;;;;;;;45.77;30.73;;;18.10;43.10;;;;;;5058449;28;20217;-71
2022/03/26 09:08:24;;;;;;;47.23;30.83;;;18.20;42.70;;;;;;5066566;28;20325;-71
2022/03/26 09:10:51;;;;;;;46.70;32.37;;;18.40;42.20;;;;;;5071748;28;20242;-71
2022/03/26 09:13:18;;;;;;;45.63;30.87;;;18.60;41.80;;;;;;5064814;28;20277;-71
2022/03/26 09:15:45;;;;;;;43.87;30.60;;;18.70;41.70;;;;;;5065767;28;20213;-71
2022/03/26 09:18:13;;;;;;;46.30;30.47;;;18.80;41.70;;;;;;5064178;28;20237;-71
2022/03/26 09:20:40;;;;;;;46.00;31.37;;;19.00;41.30;;;;;;5061708;28;20213;-71
2022/03/26 09:23:07;;;;;;;50.97;32.83;;;19.10;40.50;;;;;;5057595;28;20211;-71
2022/03/26 09:25:35;;;;;;;46.57;31.13;;;19.30;40.20;;;;;;5064880;28;20203;-71
2022/03/26 09:28:02;;;;;;;47.63;31.53;;;19.40;40.40;;;;;;5070485;28;20286;-71
2022/03/26 09:30:31;;;;;;;47.50;31.00;;;19.50;40.30;;;;;;5063204;28;20197;-71
2022/03/26 09:33:00;;;;;;;46.53;32.03;;;19.70;40.30;;;;;;5059828;28;20213;-71
2022/03/26 09:35:27;;;;;;;44.93;30.93;;;19.70;39.80;;;;;;5072331;28;20587;-71
2022/03/26 09:37:55;;;;;;;45.77;31.87;;;19.80;39.30;;;;;;5061915;28;20205;-71
2022/03/26 09:40:23;;;;;;;48.70;32.33;;;19.90;38.90;;;;;;5056817;28;20605;-71
2022/03/26 09:42:52;;;;;;;44.00;30.23;;;20.00;38.60;;;;;;5062793;28;20221;-71
2022/03/26 09:45:19;;;;;;;50.83;31.53;;;20.10;38.50;;;;;;5071930;28;20201;-71
2022/03/26 09:47:47;;;;;;;52.77;32.97;;;20.20;38.60;;;;;;5064255;28;20197;-71
2022/03/26 09:50:15;;;;;;;44.77;30.77;;;20.40;38.90;;;;;;5067115;28;20197;-71
2022/03/26 09:52:42;;;;;;;45.63;31.40;;;20.50;38.30;;;;;;5056534;28;20304;-71
2022/03/26 09:55:13;;;;;;;47.13;30.73;;;20.60;38.00;;;;;;5062734;28;20206;-71
2022/03/26 09:57:40;;;;;;;48.20;32.20;;;20.80;37.60;;;;;;5051838;28;20297;-71
2022/03/26 10:00:09;;;;;;;51.33;30.50;;;20.80;36.90;;;;;;5060239;28;20217;-71
2022/03/26 10:02:40;;;;;;;41.77;30.77;;;20.90;36.40;;;;;;5065496;28;20330;-71
2022/03/26 10:05:08;;;;;;;42.50;28.33;;;21.00;35.80;;;;;;5071300;28;20646;-71
2022/03/26 10:07:35;;;;;;;42.50;29.60;;;21.10;35.40;;;;;;5061009;28;20216;-71
2022/03/26 10:10:03;;;;;;;42.43;29.33;;;21.10;35.50;;;;;;5055995;28;20234;-71
2022/03/26 10:12:31;;;;;;;44.57;28.83;;;21.30;35.10;;;;;;5062638;28;20220;-71
2022/03/26 10:15:04;;;;;;;40.87;29.43;;;21.40;35.10;;;;;;5069762;28;20303;-71
2022/03/26 10:17:36;;;;;;;35.67;25.00;;;21.50;34.40;;;;;;5069612;28;20236;-71
2022/03/26 10:20:06;;;;;;;35.40;25.33;;;21.60;33.50;;;;;;5059559;28;20208;-71
2022/03/26 10:22:37;;;;;;;35.60;24.63;;;21.60;32.10;;;;;;5071047;28;20308;-71
2022/03/26 10:25:15;;;;;;;34.97;24.13;;;21.70;32.20;;;;;;5078153;28;20642;-71
2022/03/26 10:27:48;;;;;;;34.50;24.67;;;21.80;32.00;;;;;;5067087;28;20197;-71
2022/03/26 10:33:23;;;;;;;32.60;22.43;;;21.90;30.90;;;;;;5056751;28;20236;-72
2022/03/26 10:36:00;;;;;;;31.30;22.90;;;22.00;30.00;;;;;;5058381;28;20213;-71
2022/03/26 10:38:29;;;;;;;25.70;19.93;;;22.00;30.30;;;;;;5054952;28;20218;-71
2022/03/26 10:41:06;;;;;;;31.03;22.47;;;22.10;29.70;;;;;;5058405;28;20209;-71
2022/03/26 10:43:37;;;;;;;31.80;22.07;;;22.10;29.70;;;;;;5059049;28;20284;-71
2022/03/26 10:46:05;;;;;;;42.93;25.00;;;22.10;29.70;;;;;;5056238;28;20212;-71
2022/03/26 10:48:34;;;;;;;34.30;23.10;;;22.00;29.10;;;;;;5062307;28;20202;-71
2022/03/26 10:51:06;;;;;;;37.43;23.40;;;21.90;29.10;;;;;;5056638;28;20598;-71
2022/03/26 10:53:37;;;;;;;34.30;24.90;;;21.90;29.20;;;;;;5060195;28;20205;-71
2022/03/26 10:56:07;;;;;;;37.90;23.27;;;21.90;29.60;;;;;;5059669;28;20223;-71
2022/03/26 10:58:35;;;;;;;33.30;23.17;;;21.90;30.40;;;;;;5057333;28;20267;-71
2022/03/26 11:01:03;;;;;;;32.77;23.90;;;22.10;30.70;;;;;;5064232;28;20228;-71
2022/03/26 11:03:32;;;;;;;34.47;22.20;;;22.20;30.10;;;;;;5068870;28;20210;-71
2022/03/26 11:06:00;;;;;;;31.07;19.93;;;22.30;29.80;;;;;;5059192;28;20320;-71
2022/03/26 11:08:32;;;;;;;28.10;18.47;;;22.40;30.10;;;;;;5052873;28;20313;-71
2022/03/26 11:11:11;;;;;;;28.53;19.60;;;22.60;30.10;;;;;;5071480;28;20225;-71
2022/03/26 11:13:46;;;;;;;29.17;18.03;;;22.70;29.20;;;;;;5055512;28;20202;-72
2022/03/26 11:16:31;;;;;;;26.13;18.33;;;22.70;29.00;;;;;;5072123;28;20197;-72
2022/03/26 11:19:13;;;;;;;24.13;17.27;;;22.80;29.10;;;;;;5060466;28;20213;-71
2022/03/26 11:21:55;;;;;;;21.43;16.50;;;22.90;29.20;;;;;;5068523;28;20564;-71
2022/03/26 11:24:41;;;;;;;20.70;16.00;;;23.00;27.70;;;;;;5063774;28;20195;-71
2022/03/26 11:27:29;;;;;;;21.97;16.93;;;23.00;28.30;;;;;;5066059;28;20222;-71
2022/03/26 11:30:20;;;;;;;24.30;17.63;;;23.00;28.30;;;;;;5068070;28;20627;-71
2022/03/26 11:32:52;;;;;;;20.80;14.90;;;23.10;28.30;;;;;;5064006;28;20198;-71
2022/03/26 11:35:19;;;;;;;24.47;16.43;;;23.20;27.00;;;;;;5051703;28;20273;-71
2022/03/26 11:38:04;;;;;;;26.50;16.77;;;23.20;26.30;;;;;;5068961;28;20205;-71
2022/03/26 11:40:54;;;;;;;25.50;17.57;;;23.20;27.00;;;;;;5070868;28;20209;-71
2022/03/26 11:43:42;;;;;;;22.77;17.10;;;23.20;27.50;;;;;;5068910;28;20295;-71
2022/03/26 11:52:18;;;;;;;23.17;16.23;;;23.60;28.50;;;;;;5060710;28;20211;-72
2022/03/26 11:55:25;;;;;;;23.53;18.03;;;23.70;27.50;;;;;;5060429;28;20206;-71
2022/03/26 11:58:20;;;;;;;23.37;16.77;;;23.80;28.30;;;;;;5059576;28;20272;-71
2022/03/26 12:01:04;;;;;;;29.17;16.73;;;23.70;27.90;;;;;;5069551;28;20297;-71
2022/03/26 12:03:42;;;;;;;25.70;15.97;;;23.80;28.10;;;;;;5073865;28;20233;-71
2022/03/26 12:06:37;;;;;;;24.70;18.30;;;23.90;29.10;;;;;;5066621;28;20208;-71
2022/03/26 12:09:04;;;;;;;24.77;17.63;;;23.90;28.20;;;;;;5052281;28;20239;-71
2022/03/26 12:11:34;;;;;;;23.60;17.07;;;23.90;27.30;;;;;;5066445;28;20207;-71
2022/03/26 12:14:08;;;;;;;27.07;17.57;;;23.80;28.10;;;;;;5075469;28;20194;-71
2022/03/26 12:16:51;;;;;;;27.57;18.50;;;23.80;28.30;;;;;;5069778;28;20528;-71
2022/03/26 12:19:38;;;;;;;24.03;18.10;;;23.90;28.30;;;;;;5061428;28;20201;-71
2022/03/26 12:22:18;;;;;;;26.10;17.47;;;24.00;28.30;;;;;;5065481;28;20268;-71
2022/03/26 12:24:47;;;;;;;26.57;18.23;;;24.10;28.20;;;;;;5063559;28;20277;-71
2022/03/26 12:27:15;;;;;;;26.57;18.43;;;24.10;28.60;;;;;;5066001;28;20213;-71
2022/03/26 12:29:43;;;;;;;22.70;17.63;;;24.10;28.30;;;;;;5060585;28;20213;-71
2022/03/26 12:32:11;;;;;;;26.17;19.00;;;24.00;27.30;;;;;;5088448;28;20205;-71
2022/03/26 12:34:51;;;;;;;27.70;17.93;;;23.90;27.40;;;;;;5067602;28;20641;-71
2022/03/26 12:37:18;;;;;;;25.97;19.07;;;23.70;26.70;;;;;;5063464;28;20268;-71
2022/03/26 12:39:46;;;;;;;25.10;19.53;;;23.60;27.50;;;;;;5073005;28;20197;-71
2022/03/26 12:42:13;;;;;;;29.03;19.87;;;23.50;27.30;;;;;;5074158;28;20225;-71
2022/03/26 12:44:43;;;;;;;25.13;17.93;;;23.40;27.10;;;;;;5068744;28;20202;-71
2022/03/26 12:47:16;;;;;;;25.23;18.90;;;23.40;27.40;;;;;;5065555;28;20638;-71
2022/03/26 12:49:45;;;;;;;28.73;19.03;;;23.40;27.20;;;;;;5073677;28;20209;-71